Tiempo atmosférico en la estación meteorológica de Navalvillar De Pela, Badajoz (308 m.)



Fecha
DESCASC
Temp. máxima en grados centígrados (hora)
DESCASC
Temp. mínima en grados centígrados (hora)
DESCASC
Temp. media en grados centígrados
DESCASC
Racha de viento máxima en m/sg (hora)
DESCASC
Velocidad máxima media en intervalos de 10 minutos(hora)
DESCASC
Precipitaciones diarias en mm
DESCASC
Precipitaciones de 00:00 a 06:00 en mm
DESCASC
Precipitaciones de 06:00 a 12:00 en mm
DESCASC
Precipitaciones de 12:00 a 18:00 en mm
DESCASC
Precipitaciones de 18:00 a 24:00 en mm
DESCASC
05-04-2020 20.9 (14:50) 10.1 (06:50) 15.5 9.17 (18:30) 5.83 (14:40) 0 0 0 0 0
04-04-2020 19.5 (17:20) 6.6 (08:00) 13 9.72 (16:10) 6.39 (16:10) 0 0 0 0 0
03-04-2020 20.6 (17:30) 6.1 (07:20) 13.4 4.72 (12:10) 3.06 (11:50) 0 0 0 0 0
02-04-2020 17.5 (18:30) 6.4 (00:00) 12 7.78 (18:40) 4.72 (19:00) 10.6 7.6 3 0 0
01-04-2020 14.5 (15:30) 4.8 (00:00) 9.7 11.94 (18:30) 7.22 (18:30) 1.6 0 0 0 1.6
31-03-2020 16.1 (15:10) 6.1 (00:00) 11.1 13.33 (16:00) 5.83 (02:30) 22.8 2 8.6 11.4 0.8
30-03-2020 14 (13:00) 6.9 (00:00) 10.5 6.94 (18:30) 5 (18:00) 7.2 0 0 3.4 3.8
29-03-2020 20 (17:20) 4.6 (00:00) 12.3 5.56 (19:00) 2.78 (08:00) 0 0 0 0 0
28-03-2020 18 (17:50) 3.2 (00:00) 10.6 8.89 (14:00) 5.83 (12:20) 0 0 0 0 0
27-03-2020 14.4 (15:30) 4.9 (00:00) 9.6 10 (01:00) 6.67 (01:00) 0 0 0 0 0
26-03-2020 19.7 (17:00) 9.1 (00:00) 14.4 11.39 (17:50) 7.22 (16:30) 2.4 2.2 0.2 0 0
25-03-2020 19.7 (17:00) 6 (00:00) 12.9 10.28 (22:00) 6.39 (20:40) 8.2 0 0 0 8.2
24-03-2020 17.6 (16:10) 9.1 (00:00) 13.4 16.39 (14:20) 11.39 (14:20) 0.4 0.2 0.2 0 0
23-03-2020 17.4 (17:20) 6.9 (00:00) 12.1 9.17 (16:20) 6.39 (15:10) 0.4 0.4 0 0 0
22-03-2020 15.6 (13:40) 4.3 (06:50) 10 8.89 (20:10) 6.11 (20:20) 5.6 0 0 2.2 3.4
21-03-2020 15.1 (14:50) 8.3 (00:00) 11.7 10.28 (17:40) 6.94 (17:50) 15.6 8.2 4.2 1 2.2
20-03-2020 18.6 (14:20) 10.5 (00:00) 14.6 7.22 (11:00) 5 (11:50) 0 0 0 0 0
19-03-2020 20.9 (16:40) 7.2 (00:00) 14 7.5 (17:50) 4.72 (17:50) 0 0 0 0 0
18-03-2020 21.5 (15:10) 10.9 (00:00) 16.2 11.39 (14:00) 8.33 (14:00) 0 0 0 0 0
17-03-2020 18.9 (17:10) 4 (00:00) 11.4 13.33 (16:20) 8.06 (23:59) 0 0 0 0 0
16-03-2020 12.1 (13:30) 4.4 (00:00) 8.3 12.5 (00:30) 7.5 (00:40) 0.8 0 0 0 0.8
15-03-2020 23 (15:30) 9.5 (00:00) 16.3 11.94 (18:20) 8.33 (23:10) 0 0 0 0 0
14-03-2020 23.3 (16:40) 8.8 (00:00) 16 4.72 (12:20) 2.5 (12:20) 0 0 0 0 0
13-03-2020 21 (16:20) 8.3 (06:40) 14.7 8.06 (21:30) 4.44 (18:30) 0 0 0 0 0
12-03-2020 27.6 (16:40) 9.1 (00:00) 18.4 7.78 (13:50) 4.44 (21:10) 0 0 0 0 0
11-03-2020 26.5 (15:50) 7.4 (00:00) 17 3.89 (07:10) 2.5 (11:30) 0 0 0 0 0
10-03-2020 24.5 (16:50) 5.2 (00:00) 14.8 5.56 (13:20) 2.5 (16:30) 0 0 0 0 0
09-03-2020 19.9 (17:10) 8.2 (00:00) 14 8.06 (07:00) 5.28 (06:50) 0 0 0 0 0
08-03-2020 18.8 (16:10) 1.8 (00:00) 10.3 7.5 (22:00) 4.44 (17:40) 0 0 0 0 0

Gráficas

Temp. máximas Temp. mínimas Temp. medias Precipitaciones Rachas de viento máximas Velocidades máximas media en intervalos de 10 minutos

Datos horarios

Fecha y hora oficial Temperatura (ºC) Velocidad del viento (km/h) Dirección del viento Racha (km/h) Dirección de racha Precipitación (mm) Presión (hPa) Tendencia (hPa) Humedad (%)
2020-04-06 23:00:00 15.2 0 Calma 4 Este 0 -- -- 91
2020-04-06 22:00:00 15.3 0 Calma 11 Norte 0 -- -- 90
2020-04-06 21:00:00 15.7 3 Oeste 23 Norte 0.2 -- -- 89
2020-04-06 20:00:00 16.9 4 Sudoeste 20 Sudoeste 1.6 -- -- 85
2020-04-06 19:00:00 19.6 8 Sudoeste 13 Sudoeste 0 -- -- 65
2020-04-06 18:00:00 20.5 6 Sudoeste 16 Sudoeste 0 -- -- 60
2020-04-06 17:00:00 20.5 8 Sudoeste 19 Sudoeste 0 -- -- 57
2020-04-06 16:00:00 20.1 9 Sudoeste 19 Sur 0 -- -- 58
2020-04-06 15:00:00 19.9 10 Sudoeste 23 Oeste 0 -- -- 59
2020-04-06 14:00:00 19.1 14 Sudoeste 24 Sudoeste 0 -- -- 67
2020-04-06 13:00:00 18.4 12 Oeste 24 Noroeste 0 -- -- 69
2020-04-06 12:00:00 17.8 13 Sudoeste 21 Sudoeste 0 -- -- 76
2020-04-06 11:00:00 16.1 11 Sudoeste 15 Sudoeste 0 -- -- 83
2020-04-06 10:00:00 15.4 7 Oeste 18 Oeste 0 -- -- 84
2020-04-06 09:00:00 14.6 9 Oeste 17 Oeste 0 -- -- 88
2020-04-06 08:00:00 14.1 0 Calma 5 Noroeste 0 -- -- 94
2020-04-06 07:00:00 14.4 2 Norte 14 Oeste 0.2 -- -- 93
2020-04-06 06:00:00 14.9 5 Oeste 23 Oeste 0 -- -- 89
2020-04-06 05:00:00 14.7 11 Sudoeste 23 Sudoeste 0 -- -- 89
2020-04-06 04:00:00 14.6 14 Sudoeste 26 Sudoeste 0 -- -- 90
2020-04-06 03:00:00 14.9 15 Sudoeste 28 Sudoeste 0.2 -- -- 88
2020-04-06 02:00:00 15.8 10 Sudoeste 22 Sudoeste 0 -- -- 79
2020-04-06 01:00:00 16.5 9 Sudoeste 24 Sudoeste 0 -- -- 74
2020-04-06 00:00:00 16.9 15 Sudoeste 28 Sudoeste 0 -- -- 71
2020-04-05 23:00:00 17.2 13 Sudoeste 30 Sudoeste 0 -- -- 71
2020-04-05 22:00:00 18.2 15 Oeste 27 Sudoeste 0 -- -- 66
2020-04-05 21:00:00 18.6 12 Sudoeste 26 Oeste 0 -- -- 62
2020-04-05 20:00:00 19.6 15 Oeste 32 Sudoeste 0 -- -- 57
2020-04-05 19:00:00 20.3 17 Oeste 33 Sudoeste 0 -- -- 56
2020-04-05 18:00:00 20.8 14 Sudoeste 28 Sudoeste 0 -- -- 54
2020-04-05 17:00:00 20.3 16 Sudoeste 23 Sudoeste 0 -- -- 55
2020-04-05 16:00:00 20.9 11 Sudoeste 25 Sudoeste 0 -- -- 53
2020-04-05 15:00:00 20.5 19 Sur 32 Sur 0 -- -- 53
2020-04-05 14:00:00 19.8 18 Sur 30 Sur 0 -- -- 56
2020-04-05 13:00:00 18.8 19 Sur 28 Sur 0 -- -- 58
2020-04-05 12:00:00 17 17 Sur 28 Sur 0 -- -- 63
2020-04-05 11:00:00 16.1 15 Sur 26 Sur 0 -- -- 64
2020-04-05 10:00:00 14.3 13 Sur 18 Sur 0 -- -- 71
2020-04-05 09:00:00 11.9 14 Sur 18 Sur 0 -- -- 77
2020-04-05 08:00:00 11.4 9 Sur 18 Sur 0 -- -- 81
2020-04-05 07:00:00 10.2 10 Sur 13 Sur 0 -- -- 86
2020-04-05 06:00:00 10.9 6 Sudeste 8 Sudeste 0 -- -- 83
2020-04-05 05:00:00 12.3 5 Sur 18 Sur 0 -- -- 74
2020-04-05 04:00:00 12.6 6 Este 15 Sur 0 -- -- 79
2020-04-05 03:00:00 13.3 10 Sur 21 Sur 0 -- -- 72
2020-04-05 02:00:00 13.6 14 Sudoeste 24 Sur 0 -- -- 72
2020-04-05 01:00:00 13.5 14 Sur 22 Sur 0 -- -- 74
2020-04-05 00:00:00 14 13 Sudoeste 22 Sudoeste 0 -- -- 70
2020-04-04 23:00:00 13.7 3 Sudeste 14 Sur 0 -- -- 74
2020-04-04 22:00:00 14.2 8 Sur 19 Sudoeste 0 -- -- 68
2020-04-04 21:00:00 14.9 15 Sudoeste 29 Sudoeste 0 -- -- 63
2020-04-04 20:00:00 16.4 13 Sudoeste 32 Sudoeste 0 -- -- 54
2020-04-04 19:00:00 17.6 19 Sudoeste 35 Sudoeste 0 -- -- 48
2020-04-04 18:00:00 18.3 19 Sudoeste 31 Sudoeste 0 -- -- 48
2020-04-04 17:00:00 19.2 19 Sudoeste 35 Sudoeste 0 -- -- 42
2020-04-04 16:00:00 19.2 21 Sudoeste 33 Sur 0 -- -- 44
2020-04-04 15:00:00 18.6 14 Sur 25 Sur 0 -- -- 50
2020-04-04 14:00:00 18.1 16 Sur 28 Sur 0 -- -- 50
2020-04-04 13:00:00 18.8 12 Sur 22 Sur 0 -- -- 53
2020-04-04 12:00:00 17.4 13 Sudeste 24 Sudeste 0 -- -- 58
2020-04-04 11:00:00 15.6 13 Sudeste 19 Sudeste 0 -- -- 65
2020-04-04 10:00:00 13.1 5 Sudeste 13 Sudeste 0 -- -- 77
2020-04-04 09:00:00 9.2 0 Calma 6 Sudoeste 0 -- -- 87
2020-04-04 08:00:00 6.6 5 Sur 6 Sur 0 -- -- 90
2020-04-04 07:00:00 7.7 3 Sudeste 8 Sur 0 -- -- 88
2020-04-04 06:00:00 7.6 7 Sur 14 Sudeste 0 -- -- 90
2020-04-04 05:00:00 8.6 6 Sur 9 Sudeste 0 -- -- 85
2020-04-04 04:00:00 8.7 7 Sur 8 Sur 0 -- -- 87
2020-04-04 03:00:00 10.6 0 Calma 7 Sur 0 -- -- 84
2020-04-04 02:00:00 10.5 4 Este 6 Sur 0 -- -- 87
2020-04-04 01:00:00 10.2 4 Sudoeste 9 Sur 0 -- -- 82
2020-04-04 00:00:00 10.6 3 Sudeste 5 Este 0 -- -- 79
2020-04-03 23:00:00 11 4 Sur 6 Sudoeste 0 -- -- 77
2020-04-03 22:00:00 12.2 5 Sudoeste 6 Sudoeste 0 -- -- 71
2020-04-03 21:00:00 16.2 4 Sudoeste 5 Sudeste 0 -- -- 60
2020-04-03 20:00:00 18.5 5 Sur 10 Sudeste 0 -- -- 51
2020-04-03 19:00:00 19.6 7 Sudeste 17 Sur 0 -- -- 45
2020-04-03 18:00:00 20.2 8 Sudoeste 14 Sur 0 -- -- 43
2020-04-03 17:00:00 20.2 7 Sur 15 Sur 0 -- -- 43
2020-04-03 16:00:00 19.5 7 Sur 12 Sudoeste 0 -- -- 49
2020-04-03 15:00:00 19 4 Sudoeste 14 Sudoeste 0 -- -- 53
2020-04-03 14:00:00 18 6 Sudeste 13 Sudeste 0 -- -- 48
2020-04-03 13:00:00 17.5 7 Sur 17 Sur 0 -- -- 55
2020-04-03 12:00:00 16.1 9 Sur 16 Sur 0 -- -- 63
2020-04-03 11:00:00 14.5 7 Sudeste 12 Sudeste 0 -- -- 70
2020-04-03 10:00:00 11.8 6 Sur 12 Sur 0 -- -- 83
2020-04-03 09:00:00 7.9 3 Sudeste 7 Sudeste 0 -- -- 98
2020-04-03 08:00:00 6.3 4 Sudeste 6 Sudeste 0 -- -- 97
2020-04-03 07:00:00 6.7 5 Sudeste 8 Sudeste 0 -- -- 96
2020-04-03 06:00:00 6.7 4 Este 10 Sur 0 -- -- 95
2020-04-03 05:00:00 6.8 6 Sur 9 Sudeste 0 -- -- 93
2020-04-03 04:00:00 7.3 4 Sur 6 Sudoeste 0 -- -- 93
2020-04-03 03:00:00 8.5 3 Este 6 Noroeste 0 -- -- 90
2020-04-03 02:00:00 9.9 3 Sudoeste 6 Sur 0 -- -- 84
2020-04-03 01:00:00 11 3 Sudeste 7 Sudeste 0 -- -- 84
2020-04-03 00:00:00 11.9 3 Este 14 Oeste 0 -- -- 80
2020-04-02 23:00:00 12.5 8 Noroeste 16 Noroeste 0 -- -- 76
2020-04-02 22:00:00 13 8 Noroeste 18 Noroeste 0 -- -- 73
2020-04-02 21:00:00 14.7 12 Noroeste 23 Oeste 0 -- -- 66
2020-04-02 20:00:00 16.3 14 Oeste 26 Oeste 0 -- -- 60
2020-04-02 19:00:00 17.3 17 Noroeste 28 Noroeste 0 -- -- 57
2020-04-02 18:00:00 17.1 12 Noroeste 24 Noroeste 0 -- -- 57
2020-04-02 17:00:00 16.6 12 Noroeste 22 Noroeste 0 -- -- 61
2020-04-02 16:00:00 15.1 4 Sur 22 Noroeste 0 -- -- 65
2020-04-02 15:00:00 15 7 Norte 14 Noroeste 0 -- -- 63
2020-04-02 14:00:00 13.8 2 Oeste 9 Oeste 0 -- -- 70
2020-04-02 13:00:00 12.8 3 Sur 10 Sur 0 -- -- 71
2020-04-02 12:00:00 11.3 3 Sur 8 Este 0 -- -- 80
2020-04-02 11:00:00 9.6 2 Nordeste 9 Sudoeste 0 -- -- 87
2020-04-02 10:00:00 8.4 4 Sudoeste 9 Sudoeste 0 -- -- 93
2020-04-02 09:00:00 7.3 2 Sudoeste 12 Sudeste 0.2 -- -- 95
2020-04-02 08:00:00 7 5 Sudeste 19 Este 1.8 -- -- 94
2020-04-02 07:00:00 7.5 14 Sur 22 Sur 1 -- -- 88
2020-04-02 06:00:00 6.9 2 Norte 21 Sudoeste 5.4 -- -- 90
2020-04-02 05:00:00 8.3 4 Sudoeste 10 Sur 1.8 -- -- 92
2020-04-02 04:00:00 8.8 8 Sur 14 Sur 0.4 -- -- 90
2020-04-02 03:00:00 8 5 Sur 9 Sur 0 -- -- 94
2020-04-02 02:00:00 7.7 4 Sudeste 8 Este 0 -- -- 94
2020-04-02 01:00:00 6.8 9 Este 13 Este 0 -- -- 94
2020-04-02 00:00:00 6.4 8 Sur 11 Sur 0 -- -- 93
2020-04-01 23:00:00 6.9 5 Sudoeste 8 Sudoeste 0 -- -- 91
2020-04-01 22:00:00 7 4 Sudoeste 9 Sudoeste 0 -- -- 90
2020-04-01 21:00:00 8.8 4 Sudoeste 8 Este 0 -- -- 86
2020-04-01 20:00:00 10.4 5 Este 13 Noroeste 0 -- -- 83
2020-04-01 19:00:00 9.6 14 Noroeste 43 Oeste 1.6 -- -- 84
2020-04-01 18:00:00 13.9 4 Sudeste 11 Sudeste 0 -- -- 59
2020-04-01 17:00:00 14.5 5 Norte 15 Norte 0 -- -- 55
2020-04-01 16:00:00 14 8 Norte 18 Norte 0 -- -- 58
2020-04-01 15:00:00 14.2 8 Noroeste 20 Oeste 0 -- -- 56
2020-04-01 14:00:00 14 9 Noroeste 19 Noroeste 0 -- -- 58
2020-04-01 13:00:00 12.8 4 Oeste 15 Sur 0 -- -- 59
2020-04-01 12:00:00 10.8 5 Norte 10 Noroeste 0 -- -- 75
2020-04-01 11:00:00 9.2 0 Calma 7 Noroeste 0 -- -- 83
2020-04-01 10:00:00 7.4 3 Norte 8 Noroeste 0 -- -- 91
2020-04-01 09:00:00 6.4 0 Calma 10 Sudoeste 0 -- -- 92
2020-04-01 08:00:00 5.5 7 Sudoeste 9 Sudoeste 0 -- -- 92
2020-04-01 07:00:00 5 5 Sudoeste 8 Sudoeste 0 -- -- 89
2020-04-01 06:00:00 7.5 4 Oeste 8 Sudoeste 0 -- -- 86
2020-04-01 05:00:00 7.6 3 Sudoeste 8 Noroeste 0 -- -- 85
2020-04-01 04:00:00 7.8 6 Noroeste 15 Noroeste 0 -- -- 82
2020-04-01 03:00:00 7.5 9 Noroeste 17 Noroeste 0 -- -- 81
2020-04-01 02:00:00 8 12 Noroeste 24 Noroeste 0 -- -- 84
2020-04-01 01:00:00 8.7 14 Noroeste 27 Noroeste 0 -- -- 90
2020-04-01 00:00:00 9.9 14 Noroeste 28 Oeste 0 -- -- 90
2020-03-31 23:00:00 10.1 4 Oeste 9 Noroeste 0 -- -- 90
2020-03-31 22:00:00 10.4 2 Norte 19 Sudoeste 0 -- -- 88
2020-03-31 21:00:00 11.1 13 Sudoeste 21 Sudoeste 0 -- -- 88
2020-03-31 20:00:00 11.7 5 Sudeste 21 Sudoeste 0.4 -- -- 89
2020-03-31 19:00:00 11.7 8 Oeste 30 Sudoeste 0.4 -- -- 86
2020-03-31 18:00:00 11.8 14 Sudoeste 40 Sudoeste 1 -- -- 85
2020-03-31 17:00:00 10.8 3 Sur 14 Noroeste 1.4 -- -- 92
2020-03-31 16:00:00 10.7 15 Oeste 48 Oeste 9 -- -- 85
2020-03-31 15:00:00 15.8 10 Sudeste 21 Sur 0 -- -- 75
2020-03-31 14:00:00 13.8 6 Sudoeste 22 Sudoeste 0 -- -- 81
2020-03-31 13:00:00 11.9 2 Norte 8 Norte 0 -- -- 89
2020-03-31 12:00:00 9.3 2 Nordeste 7 Este 0.2 -- -- 97
2020-03-31 11:00:00 7.5 6 Nordeste 10 Este 1.8 -- -- 97
2020-03-31 10:00:00 6.9 7 Este 18 Este 1.6 -- -- 96
2020-03-31 09:00:00 6.4 4 Nordeste 12 Este 1.4 -- -- 96
2020-03-31 08:00:00 6.1 8 Este 12 Este 1.6 -- -- 95
2020-03-31 07:00:00 6.3 4 Este 9 Este 2 -- -- 95
2020-03-31 06:00:00 6.3 6 Este 12 Este 0.8 -- -- 95
2020-03-31 05:00:00 6.1 6 Este 17 Este 0.8 -- -- 94
2020-03-31 04:00:00 6.3 13 Este 27 Este 0.4 -- -- 90
2020-03-31 03:00:00 6.3 18 Este 31 Este 0 -- -- 88
2020-03-31 02:00:00 6.4 18 Este 28 Este 0 -- -- 85
2020-03-31 01:00:00 6.6 18 Este 25 Este 0 -- -- 86
2020-03-31 00:00:00 6.9 12 Este 22 Este 0 -- -- 88
2020-03-30 23:00:00 7.3 9 Este 23 Este 0 -- -- 92
2020-03-30 22:00:00 7.5 10 Este 24 Este 0.6 -- -- 92
2020-03-30 21:00:00 8.1 12 Sudeste 20 Este 0.8 -- -- 91
2020-03-30 20:00:00 8.6 11 Este 25 Este 0.6 -- -- 91
2020-03-30 19:00:00 9.5 15 Este 25 Este 1.8 -- -- 91
2020-03-30 18:00:00 10.8 18 Este 23 Este 1.2 -- -- 90
2020-03-30 17:00:00 13.2 0 Calma 11 Este 0 -- -- 78
2020-03-30 16:00:00 12.9 5 Sudeste 12 Sudeste 0 -- -- 80
2020-03-30 15:00:00 12.8 5 Noroeste 15 Noroeste 1 -- -- 86
2020-03-30 14:00:00 13.5 3 Oeste 9 Este 1.2 -- -- 82
2020-03-30 13:00:00 14 3 Este 6 Sudeste 0 -- -- 77
2020-03-30 12:00:00 13.2 2 Este 6 Este 0 -- -- 79
2020-03-30 11:00:00 11.8 4 Este 8 Este 0 -- -- 84
2020-03-30 10:00:00 10.6 0 Calma 6 Este 0 -- -- 91
2020-03-30 09:00:00 8.1 0 Calma 6 Este 0 -- -- 94
2020-03-30 08:00:00 7.8 4 Este 11 Sudoeste 0 -- -- 88
2020-03-30 07:00:00 8.7 5 Sur 9 Este 0 -- -- 86
2020-03-30 06:00:00 10.5 5 Noroeste 10 Noroeste 0 -- -- 82
2020-03-30 05:00:00 11.9 7 Noroeste 17 Oeste 0 -- -- 77
2020-03-30 04:00:00 12.6 11 Oeste 18 Oeste 0 -- -- 72
2020-03-30 03:00:00 12.6 9 Oeste 17 Oeste 0 -- -- 73
2020-03-30 02:00:00 12.6 9 Noroeste 19 Oeste 0 -- -- 73
2020-03-30 01:00:00 13.2 9 Oeste 14 Oeste 0 -- -- 67
2020-03-30 00:00:00 13.2 5 Noroeste 9 Oeste 0 -- -- 67
2020-03-29 23:00:00 13.8 6 Oeste 10 Noroeste 0 -- -- 65
2020-03-29 22:00:00 14.2 7 Oeste 11 Noroeste 0 -- -- 58
2020-03-29 21:00:00 15.6 4 Oeste 6 Oeste 0 -- -- 53
2020-03-29 20:00:00 17.9 3 Norte 17 Noroeste 0 -- -- 45
2020-03-29 19:00:00 18.7 9 Noroeste 20 Noroeste 0 -- -- 39
2020-03-29 18:00:00 19.9 5 Nordeste 15 Norte 0 -- -- 34
2020-03-29 17:00:00 19.6 8 Noroeste 18 Este 0 -- -- 38
2020-03-29 16:00:00 19.4 4 Nordeste 19 Norte 0 -- -- 33
2020-03-29 15:00:00 18.9 5 Sur 12 Sudeste 0 -- -- 36
2020-03-29 14:00:00 18.2 3 Noroeste 10 Este 0 -- -- 40
2020-03-29 13:00:00 16.6 5 Sudeste 14 Sur 0 -- -- 48
2020-03-29 12:00:00 14.3 10 Sudeste 16 Sur 0 -- -- 54
2020-03-29 11:00:00 11.7 8 Sudeste 13 Sudeste 0 -- -- 66
2020-03-29 10:00:00 9.4 6 Sudeste 13 Sudeste 0 -- -- 79
2020-03-29 09:00:00 6.2 3 Sudeste 10 Sur 0 -- -- 87
2020-03-29 08:00:00 5.3 10 Sur 12 Sur 0 -- -- 83
2020-03-29 07:00:00 4.6 7 Sur 8 Sur 0 -- -- 84
2020-03-29 06:00:00 5.1 4 Sur 10 Sur 0 -- -- 82
2020-03-29 05:00:00 6.1 3 Sur 9 Sur 0 -- -- 82
2020-03-29 03:00:00 7.6 3 Sudeste 5 Sur 0 -- -- 76
2020-03-29 01:00:00 7.8 3 Sur 12 Sur 0 -- -- 79
2020-03-29 00:00:00 7.3 7 Sur 12 Sur 0 -- -- 82
2020-03-28 23:00:00 8.2 3 Sur 5 Sur 0 -- -- 81
2020-03-28 22:00:00 9.7 3 Sudeste 6 Sudoeste 0 -- -- 76
2020-03-28 21:00:00 10.4 6 Sudoeste 8 Sudoeste 0 -- -- 70
2020-03-28 20:00:00 13.7 5 Sudoeste 8 Sudoeste 0 -- -- 61
2020-03-28 19:00:00 16.7 5 Sur 15 Sudeste 0 -- -- 50
2020-03-28 18:00:00 18 10 Sudeste 23 Sur 0 -- -- 42
2020-03-28 17:00:00 17.9 13 Sur 24 Sudeste 0 -- -- 41
2020-03-28 16:00:00 17.5 13 Sudeste 27 Sur 0 -- -- 43
2020-03-28 15:00:00 16.6 16 Sur 29 Sudeste 0 -- -- 46
2020-03-28 14:00:00 16 19 Sudeste 32 Sudeste 0 -- -- 52
2020-03-28 13:00:00 15 15 Sudeste 32 Sudeste 0 -- -- 57
2020-03-28 12:00:00 13.8 15 Sudeste 32 Sudeste 0 -- -- 59
2020-03-28 11:00:00 12.3 14 Sudeste 28 Este 0 -- -- 67
2020-03-28 10:00:00 10.6 14 Sudeste 25 Sudeste 0 -- -- 73
2020-03-28 09:00:00 8.2 7 Sudeste 13 Sudeste 0 -- -- 77
2020-03-28 08:00:00 4.5 7 Sur 10 Sur 0 -- -- 92
2020-03-28 07:00:00 3.6 4 Sudeste 17 Sudeste 0 -- -- 90
2020-03-28 06:00:00 4.4 8 Sudeste 15 Sudeste 0 -- -- 87
2020-03-28 05:00:00 4.4 9 Sur 19 Sudeste 0 -- -- 88
2020-03-28 04:00:00 3.9 9 Sur 14 Sudeste 0 -- -- 88
2020-03-28 03:00:00 5.2 8 Sudeste 13 Sudeste 0 -- -- 86
2020-03-28 02:00:00 4.2 7 Sudeste 10 Sudeste 0 -- -- 88
2020-03-28 01:00:00 4.2 5 Sur 9 Sur 0 -- -- 89
2020-03-28 00:00:00 4.9 8 Sur 12 Sudeste 0 -- -- 86
2020-03-27 23:00:00 7.3 9 Sudeste 25 Sudeste 0 -- -- 75
2020-03-27 22:00:00 7.5 14 Sur 21 Sur 0 -- -- 74
2020-03-27 21:00:00 8.1 8 Sudeste 17 Sudeste 0 -- -- 71
2020-03-27 20:00:00 9.4 12 Sudeste 27 Este 0 -- -- 68
2020-03-27 19:00:00 11.6 15 Sudeste 32 Este 0 -- -- 59
2020-03-27 18:00:00 12.8 19 Sudeste 32 Este 0 -- -- 58
2020-03-27 17:00:00 13.2 16 Este 31 Este 0 -- -- 53
2020-03-27 16:00:00 14.3 19 Este 32 Sudeste 0 -- -- 55
2020-03-27 15:00:00 13.8 19 Sudeste 32 Sudeste 0 -- -- 58
2020-03-27 14:00:00 13.3 20 Sudeste 31 Sudeste 0 -- -- 62
2020-03-27 13:00:00 11.7 14 Sur 23 Sur 0 -- -- 66
2020-03-27 12:00:00 11.1 6 Sudeste 13 Sudeste 0 -- -- 71
2020-03-27 11:00:00 9.1 2 Norte 8 Norte 0 -- -- 92
2020-03-27 10:00:00 8.1 4 Norte 10 Noroeste 0 -- -- 93
2020-03-27 09:00:00 7.7 5 Noroeste 10 Noroeste 0 -- -- 93
2020-03-27 08:00:00 7.5 3 Nordeste 7 Nordeste 0 -- -- 94
2020-03-27 07:00:00 7.7 4 Oeste 12 Noroeste 0 -- -- 92
2020-03-27 06:00:00 7.7 8 Noroeste 17 Noroeste 0 -- -- 92
2020-03-27 05:00:00 7.5 12 Noroeste 20 Noroeste 0 -- -- 91
2020-03-27 04:00:00 7.9 5 Noroeste 18 Oeste 0 -- -- 89
2020-03-27 03:00:00 8.6 14 Noroeste 25 Noroeste 0 -- -- 87
2020-03-27 02:00:00 9.4 13 Noroeste 33 Oeste 0 -- -- 85
2020-03-27 01:00:00 10.5 24 Noroeste 36 Noroeste 0 -- -- 81
2020-03-27 00:00:00 11.6 13 Oeste 23 Noroeste 0 -- -- 78
2020-03-26 23:00:00 12.8 18 Oeste 30 Oeste 0 -- -- 73
2020-03-26 22:00:00 13.4 15 Oeste 25 Noroeste 0 -- -- 71
2020-03-26 21:00:00 14.7 15 Oeste 26 Oeste 0 -- -- 66
2020-03-26 20:00:00 15.5 7 Noroeste 17 Noroeste 0 -- -- 55
2020-03-26 19:00:00 18.3 12 Noroeste 30 Norte 0 -- -- 44
2020-03-26 18:00:00 19.2 21 Norte 41 Noroeste 0 -- -- 36
2020-03-26 17:00:00 19.7 22 Noroeste 39 Noroeste 0 -- -- 40
2020-03-26 16:00:00 19.6 21 Noroeste 36 Noroeste 0 -- -- 40
2020-03-26 15:00:00 19.1 21 Noroeste 35 Norte 0 -- -- 42
2020-03-26 14:00:00 18.7 19 Noroeste 31 Noroeste 0 -- -- 44
2020-03-26 13:00:00 17.5 19 Oeste 36 Noroeste 0 -- -- 62
2020-03-26 12:00:00 15.6 15 Oeste 27 Noroeste 0 -- -- 69
2020-03-26 11:00:00 13.9 12 Oeste 23 Oeste 0 -- -- 77
2020-03-26 10:00:00 11.9 12 Noroeste 24 Oeste 0 -- -- 81
2020-03-26 09:00:00 11 14 Oeste 25 Oeste 0 -- -- 86
2020-03-26 08:00:00 9.7 14 Oeste 25 Oeste 0.2 -- -- 92
2020-03-26 07:00:00 9.6 12 Oeste 27 Oeste 0 -- -- 94
2020-03-26 06:00:00 10.2 14 Oeste 26 Oeste 0 -- -- 95
2020-03-26 05:00:00 10.3 14 Oeste 22 Noroeste 0 -- -- 97
2020-03-26 04:00:00 9.4 0 Calma 6 Nordeste 0 -- -- 96
2020-03-26 03:00:00 9.8 0 Calma 6 Oeste 0 -- -- 95
2020-03-26 02:00:00 10.6 3 Noroeste 16 Este 0 -- -- 94
2020-03-26 01:00:00 11 8 Sur 36 Nordeste 2.2 -- -- 94
2020-03-26 00:00:00 11.4 10 Sur 21 Sudoeste 0.2 -- -- 89
2020-03-25 23:00:00 10.9 12 Sur 31 Nordeste 1.2 -- -- 91
2020-03-25 22:00:00 12.6 22 Nordeste 37 Nordeste 0 -- -- 78
2020-03-25 21:00:00 13 10 Sudoeste 35 Nordeste 6.6 -- -- 81
2020-03-25 20:00:00 16.5 6 Norte 27 Norte 0.2 -- -- 66
2020-03-25 19:00:00 17.9 9 Noroeste 23 Noroeste 0 -- -- 54
2020-03-25 18:00:00 18.9 9 Noroeste 25 Norte 0 -- -- 51
2020-03-25 17:00:00 19.7 13 Noroeste 26 Noroeste 0 -- -- 48
2020-03-25 16:00:00 18.9 14 Noroeste 24 Noroeste 0 -- -- 49
2020-03-25 15:00:00 18.5 9 Noroeste 23 Noroeste 0 -- -- 50
2020-03-25 14:00:00 17.7 8 Noroeste 17 Noroeste 0 -- -- 51
2020-03-25 13:00:00 16.6 6 Norte 12 Oeste 0 -- -- 55
2020-03-25 12:00:00 15.6 3 Este 10 Sudeste 0 -- -- 60
2020-03-25 11:00:00 14 2 Sur 14 Sur 0 -- -- 59
2020-03-25 10:00:00 12.4 9 Sudeste 15 Sudeste 0 -- -- 65
2020-03-25 09:00:00 10.4 9 Sudeste 16 Sudeste 0 -- -- 75
2020-03-25 08:00:00 7 6 Sur 9 Sur 0 -- -- 87
2020-03-25 07:00:00 6.1 5 Sudeste 8 Sudeste 0 -- -- 86
2020-03-25 06:00:00 7.4 3 Este 5 Este 0 -- -- 85
2020-03-25 05:00:00 7.9 0 Calma 5 Sudoeste 0 -- -- 84
2020-03-25 04:00:00 8.5 4 Sur 15 Este 0 -- -- 84
2020-03-25 03:00:00 8.5 2 Sur 10 Sudeste 0 -- -- 86
2020-03-25 02:00:00 8.5 12 Este 15 Sudeste 0 -- -- 83
2020-03-25 01:00:00 8.7 8 Sudeste 14 Sur 0 -- -- 82
2020-03-25 00:00:00 9.2 9 Sur 17 Este 0 -- -- 80
2020-03-24 23:00:00 10.3 14 Este 25 Sudeste 0 -- -- 76
2020-03-24 22:00:00 12 17 Sudeste 27 Sudeste 0 -- -- 68
2020-03-24 21:00:00 12.3 9 Sudeste 31 Sudeste 0 -- -- 69
2020-03-24 20:00:00 13.4 19 Sudeste 39 Sudeste 0 -- -- 66
2020-03-24 19:00:00 14.9 25 Sudeste 39 Este 0 -- -- 62
2020-03-24 18:00:00 16.4 24 Este 38 Sudeste 0 -- -- 59
2020-03-24 17:00:00 16.1 24 Este 50 Sudeste 0 -- -- 59
2020-03-24 16:00:00 17.5 33 Sudeste 50 Sudeste 0 -- -- 57
2020-03-24 15:00:00 16.2 37 Sudeste 59 Sudeste 0 -- -- 60
2020-03-24 14:00:00 15.7 39 Sudeste 52 Sudeste 0 -- -- 64
2020-03-24 13:00:00 15.7 25 Sudeste 44 Sudeste 0 -- -- 64
2020-03-24 12:00:00 15.1 33 Sudeste 51 Este 0 -- -- 63
2020-03-24 11:00:00 15.4 33 Sudeste 51 Sudeste 0 -- -- 63
2020-03-24 10:00:00 14.7 35 Sudeste 48 Este 0.2 -- -- 67
2020-03-24 09:00:00 13.5 18 Este 26 Este 0 -- -- 74
2020-03-24 08:00:00 10.4 3 Sudeste 15 Sudeste 0 -- -- 85
2020-03-24 07:00:00 10.4 8 Sudeste 12 Este 0 -- -- 83
2020-03-24 06:00:00 11.2 6 Este 12 Sudeste 0 -- -- 81
2020-03-24 05:00:00 11.4 7 Este 16 Sudeste 0 -- -- 79
2020-03-24 04:00:00 11.7 10 Sudeste 17 Sudeste 0 -- -- 78
2020-03-24 03:00:00 11.6 11 Sudeste 22 Sudeste 0 -- -- 82
2020-03-24 02:00:00 11.3 6 Sudeste 15 Sudeste 0 -- -- 87
2020-03-24 01:00:00 11.2 5 Sudeste 8 Sudeste 0.2 -- -- 90
2020-03-24 00:00:00 11.4 3 Este 7 Este 0 -- -- 87
2020-03-23 23:00:00 11.4 4 Este 8 Este 0 -- -- 84
2020-03-23 22:00:00 11.6 5 Sudeste 17 Este 0 -- -- 81
2020-03-23 21:00:00 12.8 6 Sudeste 24 Este 0 -- -- 73
2020-03-23 20:00:00 13.5 9 Este 19 Este 0 -- -- 74
2020-03-23 19:00:00 15.2 16 Este 24 Este 0 -- -- 66
2020-03-23 18:00:00 16.5 15 Este 27 Sudeste 0 -- -- 62
2020-03-23 17:00:00 16.9 16 Este 33 Este 0 -- -- 58
2020-03-23 16:00:00 16.8 12 Este 30 Este 0 -- -- 59
2020-03-23 15:00:00 15.1 15 Este 26 Sudeste 0 -- -- 65
2020-03-23 14:00:00 15.7 15 Este 27 Nordeste 0 -- -- 62
2020-03-23 13:00:00 14.3 13 Este 23 Este 0 -- -- 69
2020-03-23 12:00:00 14.3 17 Este 24 Este 0 -- -- 69
2020-03-23 11:00:00 13.2 12 Este 18 Este 0 -- -- 76
2020-03-23 10:00:00 11.6 6 Sudeste 9 Sudeste 0 -- -- 82
2020-03-23 09:00:00 9.8 6 Este 10 Sudeste 0 -- -- 92
2020-03-23 08:00:00 7.5 3 Sudeste 9 Sudeste 0 -- -- 97
2020-03-23 07:00:00 7.2 4 Sudeste 10 Sudeste 0 -- -- 97
2020-03-23 06:00:00 7.9 0 Calma 9 Sur 0 -- -- 97
2020-03-23 05:00:00 7.9 4 Sudeste 8 Sudeste 0 -- -- 97
2020-03-23 04:00:00 7.9 5 Sur 8 Sur 0 -- -- 95
2020-03-23 03:00:00 8.9 0 Calma 5 Sur 0 -- -- 96
2020-03-23 02:00:00 8.9 2 Sur 6 Sur 0 -- -- 95
2020-03-23 01:00:00 9.6 0 Calma 4 Sur 0.4 -- -- 96
2020-03-23 00:00:00 9.4 0 Calma 3 Nordeste 0 -- -- 96
2020-03-22 23:00:00 9.4 3 Nordeste 5 Norte 0 -- -- 95
2020-03-22 22:00:00 9.8 3 Este 9 Este 0 -- -- 94
2020-03-22 21:00:00 9.6 3 Oeste 32 Este 3.2 -- -- 93
2020-03-22 20:00:00 12.1 3 Este 8 Norte 0.2 -- -- 82
2020-03-22 19:00:00 13.1 6 Noroeste 8 Noroeste 0 -- -- 72
2020-03-22 18:00:00 14.6 0 Calma 8 Sudoeste 0 -- -- 66
2020-03-22 17:00:00 11.9 3 Sudoeste 18 Sudeste 0.6 -- -- 83
2020-03-22 16:00:00 10.6 18 Este 31 Nordeste 1.6 -- -- 85
2020-03-22 15:00:00 15 5 Sudeste 12 Sudeste 0 -- -- 58
2020-03-22 14:00:00 15.5 8 Nordeste 16 Sudeste 0 -- -- 55
2020-03-22 13:00:00 14.3 7 Nordeste 16 Este 0 -- -- 62
2020-03-22 12:00:00 12.9 6 Este 16 Sudeste 0 -- -- 70
2020-03-22 11:00:00 12.6 4 Sudeste 13 Este 0 -- -- 70
2020-03-22 10:00:00 10.9 3 Este 7 Sudeste 0 -- -- 78
2020-03-22 09:00:00 9.1 3 Sur 5 Sur 0 -- -- 88
2020-03-22 08:00:00 5.7 4 Sudeste 8 Sur 0 -- -- 97
2020-03-22 07:00:00 4.3 5 Sur 7 Sur 0 -- -- 96
2020-03-22 06:00:00 5.1 6 Sur 10 Sur 0 -- -- 94
2020-03-22 05:00:00 6.5 8 Sur 13 Sudeste 0 -- -- 94
2020-03-22 04:00:00 7.3 9 Sudeste 12 Sudeste 0 -- -- 91
2020-03-22 03:00:00 8.4 7 Sudeste 19 Sudeste 0 -- -- 91
2020-03-22 02:00:00 7.7 10 Sudeste 18 Sudeste 0 -- -- 90
2020-03-22 01:00:00 8.5 8 Sur 18 Sur 0 -- -- 90
2020-03-22 00:00:00 9.2 3 Este 4 Este 0 -- -- 93
2020-03-21 23:00:00 9.1 2 Sur 8 Sudeste 0 -- -- 94
2020-03-21 22:00:00 9.2 6 Sudeste 22 Sudeste 0.2 -- -- 92
2020-03-21 21:00:00 9.6 11 Sudeste 25 Sudeste 1 -- -- 93
2020-03-21 20:00:00 9.7 10 Sur 22 Sur 0.8 -- -- 90
2020-03-21 19:00:00 10.3 9 Sur 22 Sur 0.2 -- -- 89
2020-03-21 18:00:00 10.1 18 Sudoeste 37 Sudoeste 1 -- -- 86
2020-03-21 17:00:00 13 12 Sudeste 24 Sudeste 0 -- -- 71
2020-03-21 16:00:00 14.1 13 Sudeste 22 Sur 0 -- -- 65
2020-03-21 15:00:00 14.8 11 Sudeste 21 Sudeste 0 -- -- 63
2020-03-21 14:00:00 13.7 8 Sur 20 Sur 0 -- -- 63
2020-03-21 13:00:00 13.3 6 Sudoeste 16 Oeste 0 -- -- 62
2020-03-21 12:00:00 12.3 7 Sudoeste 16 Oeste 0 -- -- 73
2020-03-21 11:00:00 10.9 9 Sudoeste 16 Sur 0 -- -- 82
2020-03-21 10:00:00 8.8 9 Sur 17 Sur 0.4 -- -- 92
2020-03-21 09:00:00 8.4 11 Sur 18 Sur 0.4 -- -- 91
2020-03-21 08:00:00 8.3 3 Sur 11 Sudeste 0.8 -- -- 93
2020-03-21 07:00:00 8.7 3 Sudeste 21 Sudoeste 2.6 -- -- 87
2020-03-21 06:00:00 9.6 13 Oeste 33 Noroeste 1.8 -- -- 93
2020-03-21 05:00:00 10.2 6 Noroeste 28 Oeste 3.2 -- -- 94
2020-03-21 04:00:00 10.9 4 Sur 8 Sudeste 0.8 -- -- 95
2020-03-21 03:00:00 10.9 3 Sur 7 Oeste 1.2 -- -- 92
2020-03-21 02:00:00 11.1 5 Noroeste 19 Noroeste 0.8 -- -- 90
2020-03-21 01:00:00 13.5 12 Sudoeste 29 Sudoeste 0.4 -- -- 79
2020-03-21 00:00:00 12.8 11 Sur 15 Sur 0 -- -- 84
2020-03-20 23:00:00 10.5 9 Sur 11 Sur 0 -- -- 93
2020-03-20 22:00:00 11.1 5 Sudoeste 8 Sudoeste 0 -- -- 93
2020-03-20 21:00:00 12.9 2 Oeste 8 Noroeste 0 -- -- 91
2020-03-20 20:00:00 13.8 5 Noroeste 16 Noroeste 0 -- -- 88
2020-03-20 19:00:00 15.4 9 Noroeste 16 Noroeste 0 -- -- 80
2020-03-20 18:00:00 17.2 6 Sudoeste 22 Sur 0 -- -- 66
2020-03-20 17:00:00 17.8 12 Sudeste 19 Sudeste 0 -- -- 62
2020-03-20 16:00:00 17.9 15 Sur 22 Sur 0 -- -- 59
2020-03-20 15:00:00 18.3 14 Sur 26 Sur 0 -- -- 61
2020-03-20 14:00:00 17.7 13 Sudeste 25 Sudeste 0 -- -- 64
2020-03-20 13:00:00 17 14 Sudeste 22 Sudeste 0 -- -- 65
2020-03-20 12:00:00 15.6 14 Sur 26 Sur 0 -- -- 72
2020-03-20 11:00:00 14.5 16 Sudeste 26 Sudeste 0 -- -- 76
2020-03-20 10:00:00 13.9 12 Sur 19 Sudeste 0 -- -- 76
2020-03-20 09:00:00 13.2 10 Sudeste 16 Sudeste 0 -- -- 80
2020-03-20 08:00:00 11.1 4 Sudeste 9 Sudeste 0 -- -- 90
2020-03-20 07:00:00 11.2 3 Sur 11 Sudeste 0 -- -- 90
2020-03-20 06:00:00 11.9 7 Sudeste 12 Sudeste 0 -- -- 87
2020-03-20 05:00:00 12 6 Este 12 Sudeste 0 -- -- 85
2020-03-20 04:00:00 12.6 10 Sudeste 17 Sudeste 0 -- -- 78
2020-03-20 03:00:00 12.3 0 Calma 5 Este 0 -- -- 80
2020-03-20 02:00:00 12.6 3 Sudeste 7 Sudeste 0 -- -- 78
2020-03-20 01:00:00 12 5 Sur 9 Sur 0 -- -- 81
2020-03-20 00:00:00 11.9 2 Sur 9 Sudeste 0 -- -- 80
2020-03-19 23:00:00 11.5 4 Sudeste 5 Sudeste 0 -- -- 80
2020-03-19 22:00:00 12.7 3 Sur 6 Sur 0 -- -- 75
2020-03-19 21:00:00 13.9 4 Sudeste 6 Sur 0 -- -- 71
2020-03-19 20:00:00 15.3 5 Sur 15 Sudeste 0 -- -- 67
2020-03-19 19:00:00 18.6 8 Sudeste 21 Este 0 -- -- 53
2020-03-19 18:00:00 20 13 Este 27 Este 0 -- -- 48
2020-03-19 17:00:00 20.7 12 Este 25 Sudeste 0 -- -- 49
2020-03-19 16:00:00 20.4 16 Este 24 Sudeste 0 -- -- 47
2020-03-19 15:00:00 20.2 12 Sudeste 22 Sudeste 0 -- -- 48
2020-03-19 14:00:00 19.1 8 Sudeste 24 Este 0 -- -- 52
2020-03-19 13:00:00 17.9 9 Este 22 Sudeste 0 -- -- 55
2020-03-19 12:00:00 16.3 12 Sudeste 22 Sudeste 0 -- -- 58
2020-03-19 11:00:00 15 14 Sudeste 24 Sudeste 0 -- -- 59
2020-03-19 10:00:00 13.2 11 Sudeste 20 Este 0 -- -- 64
2020-03-19 09:00:00 10.6 11 Sur 16 Sur 0 -- -- 73
2020-03-19 08:00:00 8 9 Sur 15 Sur 0 -- -- 80
2020-03-19 07:00:00 7.4 7 Sur 10 Sur 0 -- -- 78
2020-03-19 06:00:00 8.6 3 Sudeste 9 Sudeste 0 -- -- 73
2020-03-19 05:00:00 9.4 5 Sur 15 Sudeste 0 -- -- 71
2020-03-19 04:00:00 10.2 11 Sur 16 Sur 0 -- -- 68
2020-03-19 03:00:00 9.9 9 Sudeste 13 Sudeste 0 -- -- 72
2020-03-19 02:00:00 11.3 6 Sur 14 Sudeste 0 -- -- 67
2020-03-19 01:00:00 12.4 7 Sudeste 15 Sudeste 0 -- -- 64
2020-03-19 00:00:00 13.3 11 Sudeste 16 Sudeste 0 -- -- 61
2020-03-18 23:00:00 13.9 3 Sur 17 Este 0 -- -- 62
2020-03-18 22:00:00 14.4 9 Este 18 Este 0 -- -- 63
2020-03-18 21:00:00 16.1 13 Sudeste 23 Este 0 -- -- 56
2020-03-18 20:00:00 16.7 7 Sudeste 19 Sudeste 0 -- -- 58
2020-03-18 19:00:00 17.4 4 Sudeste 20 Este 0 -- -- 60
2020-03-18 18:00:00 18.5 14 Este 31 Este 0 -- -- 57
2020-03-18 17:00:00 20.4 18 Sudeste 36 Sudeste 0 -- -- 49
2020-03-18 16:00:00 21 25 Sudeste 40 Sudeste 0 -- -- 44
2020-03-18 15:00:00 21.2 17 Sudeste 35 Sudeste 0 -- -- 46
2020-03-18 14:00:00 20.5 30 Sudeste 41 Sudeste 0 -- -- 44
2020-03-18 13:00:00 20.4 21 Este 33 Este 0 -- -- 47
2020-03-18 12:00:00 18.8 24 Este 39 Sudeste 0 -- -- 50
2020-03-18 11:00:00 17 27 Este 37 Este 0 -- -- 55
2020-03-18 10:00:00 15.4 18 Sudeste 29 Sudeste 0 -- -- 62
2020-03-18 09:00:00 13.1 15 Sudeste 26 Sudeste 0 -- -- 71
2020-03-18 08:00:00 10.9 12 Sudeste 19 Sudeste 0 -- -- 77
2020-03-18 07:00:00 11.4 15 Sudeste 26 Sudeste 0 -- -- 75
2020-03-18 06:00:00 12.1 11 Sudeste 32 Sudeste 0 -- -- 72
2020-03-18 05:00:00 11.7 14 Sudeste 21 Sudeste 0 -- -- 75
2020-03-18 04:00:00 12.8 12 Sudeste 25 Sudeste 0 -- -- 71
2020-03-18 03:00:00 13.8 14 Sudeste 31 Este 0 -- -- 69
2020-03-18 02:00:00 14.1 14 Sudeste 28 Sudeste 0 -- -- 74
2020-03-18 01:00:00 14.4 17 Este 39 Sudeste 0 -- -- 73
2020-03-18 00:00:00 14.8 29 Este 41 Este 0 -- -- 73
2020-03-17 23:00:00 14.8 10 Este 27 Sudeste 0 -- -- 72
2020-03-17 22:00:00 14.2 13 Sudeste 18 Sudeste 0 -- -- 73
2020-03-17 21:00:00 14.5 6 Este 11 Sudeste 0 -- -- 59
2020-03-17 20:00:00 15.2 9 Sudeste 16 Sudeste 0 -- -- 51
2020-03-17 19:00:00 17.6 12 Sudeste 32 Sudeste 0 -- -- 43
2020-03-17 18:00:00 18.8 22 Sudeste 39 Sudeste 0 -- -- 40
2020-03-17 17:00:00 18.7 20 Este 48 Sudeste 0 -- -- 41
2020-03-17 16:00:00 18.2 15 Sudeste 42 Sudeste 0 -- -- 39
2020-03-17 15:00:00 17.7 22 Sudeste 33 Sur 0 -- -- 41
2020-03-17 14:00:00 15.9 18 Sudeste 33 Este 0 -- -- 46
2020-03-17 13:00:00 14.9 19 Sudeste 36 Sudeste 0 -- -- 52
2020-03-17 12:00:00 13.8 20 Sudeste 35 Sudeste 0 -- -- 53
2020-03-17 11:00:00 11.9 22 Sudeste 32 Sudeste 0 -- -- 62
2020-03-17 10:00:00 10.3 19 Sudeste 27 Sudeste 0 -- -- 64
2020-03-17 09:00:00 8.2 9 Sudeste 13 Sudeste 0 -- -- 75
2020-03-17 08:00:00 4.1 6 Sudeste 9 Este 0 -- -- 88
2020-03-17 07:00:00 4.9 3 Sudeste 12 Sudeste 0 -- -- 88
2020-03-17 06:00:00 6.1 10 Sudeste 15 Sudeste 0 -- -- 82
2020-03-17 05:00:00 6.7 5 Sudeste 17 Sudeste 0 -- -- 84
2020-03-17 04:00:00 6.6 13 Sudeste 20 Sudeste 0 -- -- 84
2020-03-17 03:00:00 5.3 5 Sudeste 14 Sudeste 0 -- -- 89
2020-03-17 02:00:00 4.8 9 Este 12 Sudeste 0 -- -- 88
2020-03-17 01:00:00 6.3 9 Sudeste 19 Sudeste 0 -- -- 83
2020-03-17 00:00:00 5 7 Sur 11 Sur 0 -- -- 90
2020-03-16 23:00:00 5.3 6 Este 12 Este 0 -- -- 90
2020-03-16 22:00:00 5.2 0 Calma 5 Nordeste 0 -- -- 91
2020-03-16 21:00:00 6.1 4 Nordeste 16 Este 0.6 -- -- 89
2020-03-16 20:00:00 5.9 4 Este 7 Este 0 -- -- 87
2020-03-16 19:00:00 6.8 5 Sur 17 Sudeste 0.2 -- -- 85
2020-03-16 18:00:00 7.8 13 Sur 19 Sur 0 -- -- 85
2020-03-16 17:00:00 7.8 9 Sudeste 40 Nordeste 0 -- -- 83
2020-03-16 16:00:00 12.1 23 Norte 40 Norte 0 -- -- 55
2020-03-16 15:00:00 10.7 19 Norte 38 Norte 0 -- -- 57
2020-03-16 14:00:00 12.1 17 Norte 33 Noroeste 0 -- -- 50
2020-03-16 13:00:00 11.5 12 Norte 24 Norte 0 -- -- 55
2020-03-16 12:00:00 11.1 18 Noroeste 33 Noroeste 0 -- -- 55
2020-03-16 11:00:00 8.7 24 Noroeste 40 Noroeste 0 -- -- 64
2020-03-16 10:00:00 7.4 18 Noroeste 32 Noroeste 0 -- -- 66
2020-03-16 09:00:00 5.8 18 Noroeste 32 Noroeste 0 -- -- 71
2020-03-16 08:00:00 4.6 19 Noroeste 31 Noroeste 0 -- -- 75
2020-03-16 07:00:00 4.7 14 Oeste 29 Noroeste 0 -- -- 74
2020-03-16 06:00:00 5.4 17 Noroeste 33 Oeste 0 -- -- 69
2020-03-16 05:00:00 5.5 14 Noroeste 28 Noroeste 0 -- -- 69
2020-03-16 04:00:00 6.4 18 Noroeste 35 Noroeste 0 -- -- 65
2020-03-16 03:00:00 6.7 26 Noroeste 42 Noroeste 0 -- -- 66
2020-03-16 02:00:00 7.5 24 Noroeste 42 Noroeste 0 -- -- 64
2020-03-16 01:00:00 9.2 26 Noroeste 45 Noroeste 0 -- -- 66
2020-03-16 00:00:00 10.5 27 Noroeste 42 Noroeste 0 -- -- 65
2020-03-15 23:00:00 12.6 25 Noroeste 40 Noroeste 0 -- -- 69
2020-03-15 22:00:00 14.7 20 Noroeste 35 Noroeste 0 -- -- 54
2020-03-15 21:00:00 15.5 23 Noroeste 39 Noroeste 0 -- -- 56
2020-03-15 20:00:00 16.9 23 Noroeste 40 Noroeste 0 -- -- 64
2020-03-15 19:00:00 19.1 23 Noroeste 43 Noroeste 0 -- -- 59
2020-03-15 18:00:00 20.3 22 Noroeste 39 Noroeste 0 -- -- 56
2020-03-15 17:00:00 21.5 19 Noroeste 32 Noroeste 0 -- -- 51
2020-03-15 16:00:00 22.3 8 Noroeste 26 Noroeste 0 -- -- 52
2020-03-15 15:00:00 22.5 13 Noroeste 27 Noroeste 0 -- -- 52
2020-03-15 14:00:00 21.6 9 Noroeste 21 Noroeste 0 -- -- 53
2020-03-15 13:00:00 20.4 8 Noroeste 15 Noroeste 0 -- -- 60
2020-03-15 12:00:00 19.7 4 Este 9 Nordeste 0 -- -- 67
2020-03-15 11:00:00 16.6 4 Noroeste 8 Noroeste 0 -- -- 74
2020-03-15 10:00:00 14.3 2 Nordeste 5 Nordeste 0 -- -- 90
2020-03-15 09:00:00 10.6 0 Calma 4 Sudeste 0 -- -- 96
2020-03-15 08:00:00 9.5 2 Este 5 Sudoeste 0 -- -- 95
2020-03-15 07:00:00 9.8 0 Calma 6 Sur 0 -- -- 94
2020-03-15 06:00:00 10.1 5 Sur 10 Sudoeste 0 -- -- 94
2020-03-15 05:00:00 9.5 5 Sur 6 Sur 0 -- -- 93
2020-03-15 04:00:00 10.1 0 Calma 4 Sudoeste 0 -- -- 93
2020-03-15 03:00:00 10.9 0 Calma 5 Sur 0 -- -- 90
2020-03-15 02:00:00 11.1 3 Sudoeste 6 Sudoeste 0 -- -- 89
2020-03-15 01:00:00 11.9 0 Calma 4 Noroeste 0 -- -- 86
2020-03-15 00:00:00 12.7 4 Este 8 Oeste 0 -- -- 84
2020-03-14 23:00:00 13.5 3 Oeste 4 Oeste 0 -- -- 79
2020-03-14 22:00:00 14.1 0 Calma 3 Sudoeste 0 -- -- 78
2020-03-14 21:00:00 15.1 3 Oeste 5 Noroeste 0 -- -- 76
2020-03-14 20:00:00 18.1 4 Oeste 8 Noroeste 0 -- -- 68
2020-03-14 19:00:00 20.5 5 Norte 12 Norte 0 -- -- 63
2020-03-14 18:00:00 22.4 9 Norte 14 Norte 0 -- -- 55
2020-03-14 17:00:00 23.3 4 Nordeste 11 Noroeste 0 -- -- 51
2020-03-14 16:00:00 22.7 4 Nordeste 10 Este 0 -- -- 56
2020-03-14 15:00:00 21.8 4 Este 10 Nordeste 0 -- -- 57
2020-03-14 14:00:00 20 6 Este 13 Nordeste 0 -- -- 68
2020-03-14 13:00:00 18 6 Este 17 Sudeste 0 -- -- 76
2020-03-14 12:00:00 15.9 5 Este 12 Este 0 -- -- 83
2020-03-14 11:00:00 14.4 5 Sudeste 12 Sur 0 -- -- 88
2020-03-14 10:00:00 13.2 6 Sudeste 13 Sur 0 -- -- 94
2020-03-14 09:00:00 12.5 8 Sur 13 Sur 0 -- -- 97
2020-03-14 08:00:00 11.4 4 Sudoeste 6 Sur 0 -- -- 98
2020-03-14 07:00:00 10.8 3 Sudoeste 6 Sudoeste 0 -- -- 98
2020-03-14 06:00:00 9.5 3 Norte 8 Sur 0 -- -- 97
2020-03-14 05:00:00 9.1 3 Sur 6 Sur 0 -- -- 96
2020-03-14 04:00:00 9.8 3 Sudeste 5 Sudeste 0 -- -- 95
2020-03-14 03:00:00 10.6 3 Sur 6 Sur 0 -- -- 95
2020-03-14 02:00:00 11 0 Calma 6 Sudoeste 0 -- -- 93
2020-03-14 01:00:00 12 3 Sur 12 Oeste 0 -- -- 90
2020-03-14 00:00:00 14.2 9 Oeste 24 Noroeste 0 -- -- 86
2020-03-13 23:00:00 14.8 15 Noroeste 26 Noroeste 0 -- -- 84
2020-03-13 22:00:00 15.3 15 Noroeste 29 Oeste 0 -- -- 81
2020-03-13 21:00:00 15.8 14 Noroeste 24 Oeste 0 -- -- 78
2020-03-13 20:00:00 16.7 14 Oeste 22 Noroeste 0 -- -- 74
2020-03-13 19:00:00 18.5 14 Noroeste 24 Noroeste 0 -- -- 67
2020-03-13 18:00:00 20.3 15 Noroeste 23 Noroeste 0 -- -- 60
2020-03-13 17:00:00 20.9 12 Noroeste 22 Noroeste 0 -- -- 53
2020-03-13 16:00:00 20.9 11 Noroeste 22 Norte 0 -- -- 56
2020-03-13 15:00:00 19.6 10 Noroeste 21 Noroeste 0 -- -- 65
2020-03-13 14:00:00 18.2 13 Noroeste 22 Noroeste 0 -- -- 72
2020-03-13 13:00:00 16.4 14 Noroeste 22 Noroeste 0 -- -- 77
2020-03-13 12:00:00 16.4 12 Noroeste 18 Noroeste 0 -- -- 78
2020-03-13 11:00:00 16.1 8 Norte 13 Noroeste 0 -- -- 79
2020-03-13 10:00:00 14.1 5 Norte 9 Norte 0 -- -- 89
2020-03-13 09:00:00 11 3 Este 4 Este 0 -- -- 94
2020-03-13 08:00:00 8.9 0 Calma 4 Sur 0 -- -- 96
2020-03-13 07:00:00 8.9 3 Sudeste 6 Este 0 -- -- 95
2020-03-13 06:00:00 9.5 0 Calma 3 Nordeste 0 -- -- 93
2020-03-13 05:00:00 9.8 0 Calma 4 Noroeste 0 -- -- 91
2020-03-13 04:00:00 10.7 0 Calma 8 Sudeste 0 -- -- 89
2020-03-13 03:00:00 11.8 0 Calma 7 Este 0 -- -- 86
2020-03-13 02:00:00 14.2 0 Calma 10 Sudeste 0 -- -- 77
2020-03-13 01:00:00 16.5 9 Noroeste 20 Noroeste 0 -- -- 70
2020-03-13 00:00:00 17.3 12 Noroeste 20 Noroeste 0 -- -- 67
2020-03-12 23:00:00 17.9 9 Noroeste 20 Noroeste 0 -- -- 62
2020-03-12 22:00:00 18.8 13 Oeste 26 Oeste 0 -- -- 58
2020-03-12 21:00:00 20 15 Noroeste 24 Oeste 0 -- -- 55
2020-03-12 20:00:00 21.3 13 Oeste 22 Noroeste 0 -- -- 50
2020-03-12 19:00:00 23.4 5 Noroeste 12 Noroeste 0 -- -- 46
2020-03-12 18:00:00 26.5 11 Noroeste 20 Noroeste 0 -- -- 34
2020-03-12 17:00:00 27.1 6 Oeste 19 Sudoeste 0 -- -- 31
2020-03-12 16:00:00 27.2 9 Oeste 26 Noroeste 0 -- -- 32
2020-03-12 15:00:00 26.2 8 Sur 18 Sudoeste 0 -- -- 37
2020-03-12 14:00:00 25.8 13 Sudoeste 28 Sudoeste 0 -- -- 36
2020-03-12 13:00:00 25.3 9 Sur 16 Sur 0 -- -- 37
2020-03-12 12:00:00 23.6 9 Sudeste 16 Sur 0 -- -- 46
2020-03-12 11:00:00 20.5 9 Sudeste 16 Sur 0 -- -- 58
2020-03-12 10:00:00 16.7 8 Sudeste 12 Sudeste 0 -- -- 74
2020-03-12 09:00:00 12.7 5 Sudeste 10 Sur 0 -- -- 91
2020-03-12 08:00:00 9.6 3 Sur 5 Norte 0 -- -- 91
2020-03-12 07:00:00 9.2 4 Noroeste 9 Noroeste 0 -- -- 91
2020-03-12 06:00:00 10.4 6 Sur 10 Sur 0 -- -- 88
2020-03-12 05:00:00 11.1 0 Calma 4 Norte 0 -- -- 84
2020-03-12 04:00:00 12.5 2 Norte 12 Sudeste 0 -- -- 83
2020-03-12 03:00:00 14.4 8 Sur 14 Sur 0 -- -- 76
2020-03-12 02:00:00 14.7 9 Sur 12 Sur 0 -- -- 77
2020-03-12 01:00:00 12.8 10 Sur 12 Sur 0 -- -- 83
2020-03-12 00:00:00 14.2 5 Sudeste 9 Este 0 -- -- 80
2020-03-11 23:00:00 14.8 5 Este 10 Sudoeste 0 -- -- 74
2020-03-11 22:00:00 16 8 Sudoeste 10 Sudoeste 0 -- -- 68
2020-03-11 21:00:00 17.1 4 Sur 6 Sur 0 -- -- 68
2020-03-11 20:00:00 18.6 4 Sudoeste 6 Sur 0 -- -- 64
2020-03-11 19:00:00 21.7 3 Sudoeste -- -- 0 -- -- 58
2020-03-11 18:00:00 24.7 0 Calma 8 Nordeste 0 -- -- 50
2020-03-11 17:00:00 25.2 7 Nordeste 10 Este 0 -- -- 45
2020-03-11 16:00:00 26.5 6 Este 10 Este 0 -- -- 41
2020-03-11 15:00:00 26.1 5 Nordeste 9 Este 0 -- -- 41
2020-03-11 14:00:00 25 3 Este 13 Este 0 -- -- 41
2020-03-11 13:00:00 24 6 Sudeste 12 Sudeste 0 -- -- 46
2020-03-11 12:00:00 22 8 Sudeste 13 Sudeste 0 -- -- 50
2020-03-11 11:00:00 19.2 6 Sudeste 11 Sudeste 0 -- -- 62
2020-03-11 10:00:00 15.4 7 Este 9 Este 0 -- -- 71
2020-03-11 09:00:00 12.9 2 Sudeste 8 Sur 0 -- -- 78
2020-03-11 08:00:00 9 4 Sur 14 Sudeste 0 -- -- 89
2020-03-11 07:00:00 7.4 5 Sudeste 8 Sudeste 0 -- -- 91
2020-03-11 06:00:00 9.5 5 Sudeste 13 Sudeste 0 -- -- 87
2020-03-11 05:00:00 9.4 5 Sudeste 10 Sur 0 -- -- 85
2020-03-11 04:00:00 8.8 5 Sur 8 Sudeste 0 -- -- 91
2020-03-11 03:00:00 8.5 3 Sudeste 6 Sudoeste 0 -- -- 88
2020-03-11 02:00:00 10 0 Calma 3 Nordeste 0 -- -- 82
2020-03-11 01:00:00 11.3 3 Este 5 Sur 0 -- -- 75
2020-03-11 00:00:00 11.4 2 Sudoeste 4 Sudoeste 0 -- -- 76
2020-03-10 23:00:00 12.3 2 Noroeste 5 Sudoeste 0 -- -- 73
2020-03-10 22:00:00 13.7 2 Norte 5 Sudoeste 0 -- -- 69
2020-03-10 21:00:00 15.2 2 Oeste 6 Sudoeste 0 -- -- 62
2020-03-10 20:00:00 16.8 5 Sudoeste 8 Sudoeste 0 -- -- 57
2020-03-10 19:00:00 22.3 3 Norte 10 Noroeste 0 -- -- 46
2020-03-10 18:00:00 24.4 5 Norte 13 Noroeste 0 -- -- 36
2020-03-10 17:00:00 24.5 7 Noroeste 15 Noroeste 0 -- -- 34
2020-03-10 16:00:00 24 6 Norte 13 Norte 0 -- -- 37
2020-03-10 15:00:00 23.2 4 Noroeste 10 Norte 0 -- -- 37
2020-03-10 14:00:00 22.2 6 Este 20 Sudeste 0 -- -- 38
2020-03-10 13:00:00 20.9 7 Sudeste 14 Este 0 -- -- 39
2020-03-10 12:00:00 19.1 7 Este 13 Sudeste 0 -- -- 45
2020-03-10 11:00:00 16.7 7 Sudeste 14 Sur 0 -- -- 50
2020-03-10 10:00:00 14.1 8 Sudeste 13 Sudeste 0 -- -- 60
2020-03-10 09:00:00 10.5 4 Sudeste 13 Sur 0 -- -- 81
2020-03-10 08:00:00 6.2 6 Sur 13 Sur 0 -- -- 93
2020-03-10 07:00:00 5.5 4 Sudeste 7 Sudeste 0 -- -- 93
2020-03-10 06:00:00 6 2 Este 4 Sudoeste 0 -- -- 88
2020-03-10 05:00:00 6.1 4 Sudoeste 6 Sur 0 -- -- 88
2020-03-10 04:00:00 6.3 3 Sur 6 Sur 0 -- -- 86
2020-03-10 03:00:00 6.4 4 Sudeste 5 Sudeste 0 -- -- 86
2020-03-10 02:00:00 7.5 3 Sudeste 8 Este 0 -- -- 86
2020-03-10 01:00:00 8.4 4 Sur 8 Sur 0 -- -- 77
2020-03-10 00:00:00 10.1 3 Sur 7 Sudeste 0 -- -- 69
2020-03-09 23:00:00 11.7 4 Sudeste 9 Noroeste 0 -- -- 61
2020-03-09 22:00:00 14.5 8 Noroeste 12 Noroeste 0 -- -- 50
2020-03-09 21:00:00 14.4 6 Noroeste 13 Noroeste 0 -- -- 50
2020-03-09 20:00:00 15.9 9 Noroeste 14 Noroeste 0 -- -- 50
2020-03-09 19:00:00 18 9 Noroeste 19 Noroeste 0 -- -- 46
2020-03-09 18:00:00 19.7 10 Noroeste 17 Noroeste 0 -- -- 41
2020-03-09 17:00:00 19.7 12 Norte 18 Noroeste 0 -- -- 44
2020-03-09 16:00:00 19.4 8 Norte 16 Norte 0 -- -- 46
2020-03-09 15:00:00 18.2 9 Norte 19 Norte 0 -- -- 49
2020-03-09 14:00:00 16.9 7 Noroeste 19 Norte 0 -- -- 51
2020-03-09 13:00:00 15.3 11 Noroeste 20 Noroeste 0 -- -- 58
2020-03-09 12:00:00 14 12 Norte 23 Norte 0 -- -- 64
2020-03-09 11:00:00 11.9 12 Noroeste 24 Noroeste 0 -- -- 72
2020-03-09 10:00:00 10.8 8 Oeste 23 Noroeste 0 -- -- 76
2020-03-09 09:00:00 8.4 16 Noroeste 24 Noroeste 0 -- -- 88
2020-03-09 08:00:00 8.4 15 Oeste 26 Oeste 0 -- -- 86
2020-03-09 07:00:00 9.2 19 Noroeste 29 Oeste 0 -- -- 82
2020-03-09 06:00:00 9.3 12 Noroeste 24 Noroeste 0 -- -- 84
2020-03-09 05:00:00 9.4 16 Noroeste 23 Oeste 0 -- -- 86
2020-03-09 04:00:00 9.9 10 Oeste 26 Noroeste 0 -- -- 86
2020-03-09 03:00:00 10.5 17 Oeste 24 Oeste 0 -- -- 83
2020-03-09 02:00:00 10.9 14 Oeste 24 Noroeste 0 -- -- 80
2020-03-09 01:00:00 11.2 15 Noroeste 20 Noroeste 0 -- -- 77
2020-03-09 00:00:00 11.3 9 Noroeste 23 Noroeste 0 -- -- 75
2020-03-08 23:00:00 11.8 10 Noroeste 19 Noroeste 0 -- -- 73
2020-03-08 22:00:00 13 15 Noroeste 27 Noroeste 0 -- -- 66
2020-03-08 21:00:00 12.8 16 Noroeste 26 Noroeste 0 -- -- 70
2020-03-08 20:00:00 14.3 14 Noroeste 20 Noroeste 0 -- -- 68
2020-03-08 19:00:00 16.2 15 Noroeste 22 Noroeste 0 -- -- 57
2020-03-08 18:00:00 17.4 14 Noroeste 26 Noroeste 0 -- -- 49
2020-03-08 17:00:00 18.5 12 Noroeste 23 Noroeste 0 -- -- 46
2020-03-08 16:00:00 18.5 15 Noroeste 26 Noroeste 0 -- -- 45
2020-03-08 15:00:00 18.1 13 Noroeste 26 Noroeste 0 -- -- 44
2020-03-08 14:00:00 16.9 10 Noroeste 20 Noroeste 0 -- -- 49
2020-03-08 13:00:00 15.7 10 Noroeste 19 Noroeste 0 -- -- 54
2020-03-08 12:00:00 14.4 7 Noroeste 14 Noroeste 0 -- -- 59
2020-03-08 11:00:00 11.1 3 Noroeste 10 Norte 0 -- -- 73
2020-03-08 10:00:00 8.7 4 Nordeste 6 Norte 0 -- -- 88
2020-03-08 09:00:00 4.9 0 Calma 7 Sudeste 0 -- -- 98
2020-03-08 08:00:00 2.2 3 Sudeste 6 Sudeste 0 -- -- 96
2020-03-08 07:00:00 2.4 3 Sudeste 6 Este 0 -- -- 95
2020-03-08 06:00:00 3.7 4 Sur 9 Sur 0 -- -- 94
2020-03-08 05:00:00 2.9 9 Sur 12 Sur 0 -- -- 94
2020-03-08 04:00:00 3.8 2 Noroeste 5 Norte 0 -- -- 93
2020-03-08 03:00:00 4.3 0 Calma 2 Sudeste 0 -- -- 90
2020-03-08 02:00:00 4.9 2 Noroeste 5 Norte 0 -- -- 89
2020-03-08 01:00:00 6.4 3 Sudoeste 4 Sudoeste 0 -- -- 82
2020-03-08 00:00:00 7.2 0 Calma 5 Oeste 0 -- -- 77